createdAt,value
2022-09-02T00:01:42.789Z,15.12
2022-09-02T00:04:15.282Z,15.09
2022-09-02T00:06:45.698Z,15.10
2022-09-02T00:09:17.367Z,15.02
2022-09-02T00:11:47.992Z,15.05
2022-09-02T00:14:20.130Z,15.05
2022-09-02T00:16:53.015Z,14.99
2022-09-02T00:19:25.766Z,14.94
2022-09-02T00:21:56.061Z,14.93
2022-09-02T00:24:25.161Z,14.88
2022-09-02T00:26:56.628Z,14.86
2022-09-02T00:29:27.474Z,14.84
2022-09-02T00:31:56.860Z,14.76
2022-09-02T00:34:43.751Z,14.68
2022-09-02T00:37:27.121Z,14.69
2022-09-02T00:40:44.690Z,14.63
2022-09-02T00:44:30.770Z,14.57
2022-09-02T00:47:14.383Z,14.54
2022-09-02T00:50:20.675Z,14.51
2022-09-02T00:52:53.633Z,14.54
2022-09-02T00:55:25.609Z,14.44
2022-09-02T00:57:59.745Z,14.41
2022-09-02T01:00:34.673Z,14.33
2022-09-02T01:03:12.733Z,14.32
2022-09-02T01:05:45.557Z,14.26
2022-09-02T01:08:16.841Z,14.19
2022-09-02T01:10:45.374Z,14.16
2022-09-02T01:13:19.738Z,14.11
2022-09-02T01:15:51.945Z,14.12
2022-09-02T01:18:24.933Z,14.06
2022-09-02T01:20:54.727Z,14.05
2022-09-02T01:23:25.180Z,14.08
2022-09-02T01:25:53.658Z,14.03
2022-09-02T01:28:22.051Z,14.07
2022-09-02T01:30:55.729Z,14.02
2022-09-02T01:33:25.389Z,13.99
2022-09-02T01:35:54.880Z,14.08
2022-09-02T01:38:25.885Z,14.07
2022-09-02T01:40:54.495Z,14.03
2022-09-02T01:43:25.003Z,14.04
2022-09-02T01:45:56.018Z,14.03
2022-09-02T01:48:24.830Z,14.04
2022-09-02T01:50:55.974Z,14.09
2022-09-02T01:53:26.272Z,14.12
2022-09-02T01:55:54.563Z,14.16
2022-09-02T01:58:23.479Z,14.10
2022-09-02T02:00:52.037Z,14.09
2022-09-02T02:03:21.606Z,14.11
2022-09-02T02:05:50.197Z,14.01
2022-09-02T02:08:19.144Z,13.94
2022-09-02T02:10:48.841Z,13.85
2022-09-02T02:13:17.589Z,13.81
2022-09-02T02:15:46.312Z,13.86
2022-09-02T02:18:14.872Z,13.87
2022-09-02T02:20:45.026Z,13.81
2022-09-02T02:23:14.249Z,13.80
2022-09-02T02:25:42.902Z,13.77
2022-09-02T02:28:12.829Z,13.81
2022-09-02T02:30:41.159Z,13.76
2022-09-02T02:33:09.540Z,13.79
2022-09-02T02:35:37.954Z,13.76
2022-09-02T02:38:07.152Z,13.80
2022-09-02T02:40:36.087Z,13.76
2022-09-02T02:43:04.996Z,13.72
2022-09-02T02:45:34.886Z,13.73
2022-09-02T02:48:04.043Z,13.73
2022-09-02T02:50:34.962Z,13.62
2022-09-02T02:53:03.718Z,13.63
2022-09-02T02:55:32.139Z,13.58
2022-09-02T02:58:01.565Z,13.52
2022-09-02T03:00:32.165Z,13.51
2022-09-02T03:03:08.635Z,13.50
2022-09-02T03:05:38.506Z,13.42
2022-09-02T03:08:08.009Z,13.41
2022-09-02T03:10:37.911Z,13.43
2022-09-02T03:13:06.817Z,13.37
2022-09-02T03:15:37.064Z,13.38
2022-09-02T03:18:07.836Z,13.37
2022-09-02T03:20:36.953Z,13.36
2022-09-02T03:23:05.569Z,13.39
2022-09-02T03:25:39.989Z,13.38
2022-09-02T03:28:08.394Z,13.30
2022-09-02T03:30:37.523Z,13.33
2022-09-02T03:33:07.923Z,13.33
2022-09-02T03:35:40.731Z,13.31
2022-09-02T03:38:09.818Z,13.30
2022-09-02T03:40:38.606Z,13.29
2022-09-02T03:43:07.499Z,13.31
2022-09-02T03:45:35.802Z,13.25
2022-09-02T03:48:04.576Z,13.25
2022-09-02T03:50:37.787Z,13.25
2022-09-02T03:53:07.323Z,13.26
2022-09-02T03:55:37.902Z,13.34
2022-09-02T03:58:08.654Z,13.30
2022-09-02T04:00:38.328Z,13.26
2022-09-02T04:03:07.719Z,13.23
2022-09-02T04:05:37.736Z,13.23
2022-09-02T04:08:05.975Z,13.30
2022-09-02T04:10:34.461Z,13.35
2022-09-02T04:13:02.770Z,13.34
2022-09-02T04:15:31.201Z,13.28
2022-09-02T04:18:00.121Z,13.33
2022-09-02T04:20:28.415Z,13.37
2022-09-02T04:22:58.471Z,13.31
2022-09-02T04:25:28.158Z,13.31
2022-09-02T04:27:56.355Z,13.33
2022-09-02T04:30:25.484Z,13.36
2022-09-02T04:32:54.477Z,13.35
2022-09-02T04:35:23.105Z,13.42
2022-09-02T04:37:51.782Z,13.48
2022-09-02T04:40:21.893Z,13.54
2022-09-02T04:42:51.028Z,13.56
2022-09-02T04:45:27.859Z,13.56
2022-09-02T04:47:58.471Z,13.63
2022-09-02T04:53:38.526Z,13.61
2022-09-02T04:56:11.866Z,13.66
2022-09-02T04:58:40.802Z,13.66
2022-09-02T05:01:10.442Z,13.66
2022-09-02T05:03:39.276Z,13.70
2022-09-02T05:06:10.744Z,13.77
2022-09-02T05:08:41.553Z,13.85
2022-09-02T05:11:15.030Z,13.90
2022-09-02T05:13:43.844Z,13.92
2022-09-02T05:16:16.597Z,13.96
2022-09-02T05:18:45.263Z,14.08
2022-09-02T05:21:14.489Z,14.14
2022-09-02T05:23:43.400Z,14.20
2022-09-02T05:26:14.723Z,14.29
2022-09-02T05:28:43.977Z,14.30
2022-09-02T05:31:20.324Z,14.37
2022-09-02T05:33:49.080Z,14.36
2022-09-02T05:36:21.008Z,14.37
2022-09-02T05:38:51.689Z,14.47
2022-09-02T05:41:24.510Z,14.53
2022-09-02T05:43:55.102Z,14.53
2022-09-02T05:46:26.254Z,14.63
2022-09-02T05:49:09.156Z,14.64
2022-09-02T05:51:44.561Z,14.67
2022-09-02T05:54:16.334Z,14.70
2022-09-02T05:56:48.420Z,14.81
2022-09-02T05:59:18.294Z,14.91
2022-09-02T06:01:48.081Z,15.00
2022-09-02T06:04:16.977Z,15.10
2022-09-02T06:06:45.421Z,15.24
2022-09-02T06:09:17.802Z,15.24
2022-09-02T06:11:49.605Z,15.26
2022-09-02T06:14:19.632Z,15.25
2022-09-02T06:16:48.545Z,15.36
2022-09-02T06:19:20.268Z,15.42
2022-09-02T06:21:50.256Z,15.53
2022-09-02T06:24:18.582Z,15.45
2022-09-02T06:26:48.937Z,15.47
2022-09-02T06:29:17.437Z,15.63
2022-09-02T06:31:47.887Z,15.67
2022-09-02T06:34:18.119Z,15.56
2022-09-02T06:36:50.710Z,15.59
2022-09-02T06:39:23.350Z,15.65
2022-09-02T06:41:53.635Z,15.69
2022-09-02T06:44:22.856Z,15.81
2022-09-02T06:46:55.787Z,15.97
2022-09-02T06:49:25.251Z,15.92
2022-09-02T06:51:56.799Z,16.01
2022-09-02T06:54:25.996Z,15.95
2022-09-02T06:56:55.655Z,15.88
2022-09-02T06:59:24.624Z,16.04
2022-09-02T07:01:53.409Z,16.23
2022-09-02T07:04:39.269Z,16.53
2022-09-02T07:07:11.960Z,16.78
2022-09-02T07:09:41.576Z,16.92
2022-09-02T07:12:12.507Z,17.03
2022-09-02T07:14:44.982Z,17.03
2022-09-02T07:17:17.720Z,17.25
2022-09-02T07:19:46.653Z,17.18
2022-09-02T07:22:18.059Z,17.47
2022-09-02T07:24:48.423Z,17.67
2022-09-02T07:27:20.270Z,18.03
2022-09-02T07:29:49.052Z,17.90
2022-09-02T07:32:17.625Z,17.88
2022-09-02T07:34:54.475Z,18.15
2022-09-02T07:37:23.628Z,18.26
2022-09-02T07:39:53.028Z,18.12
2022-09-02T07:42:22.866Z,18.20
2022-09-02T07:44:51.798Z,18.34
2022-09-02T07:47:20.251Z,18.49
2022-09-02T07:52:39.965Z,18.78
2022-09-02T07:55:14.633Z,18.80
2022-09-02T07:57:44.990Z,19.20
2022-09-02T08:00:14.777Z,20.19
2022-09-02T08:02:44.234Z,22.32
2022-09-02T08:05:13.248Z,23.12
2022-09-02T08:07:41.648Z,24.16
2022-09-02T08:10:13.219Z,23.63
2022-09-02T08:12:45.005Z,24.57
2022-09-02T08:15:15.632Z,25.65
2022-09-02T08:17:45.460Z,24.80
2022-09-02T08:20:18.790Z,25.23
2022-09-02T08:22:52.041Z,22.94
2022-09-02T08:25:29.503Z,22.60
2022-09-02T08:27:59.554Z,22.23
2022-09-02T08:30:28.022Z,21.87
2022-09-02T08:32:56.244Z,21.49
2022-09-02T08:35:24.546Z,21.26
2022-09-02T08:37:53.139Z,21.46
2022-09-02T08:40:23.680Z,21.81
2022-09-02T08:43:00.418Z,21.98
2022-09-02T08:45:37.297Z,22.43
2022-09-02T08:48:10.756Z,23.20
2022-09-02T08:50:41.843Z,23.94
2022-09-02T08:53:17.492Z,23.74
2022-09-02T08:56:12.426Z,23.90
2022-09-02T08:58:43.881Z,24.50
2022-09-02T09:01:24.428Z,27.92
2022-09-02T09:04:13.531Z,30.53
2022-09-02T09:06:55.007Z,29.03
2022-09-02T09:09:32.421Z,26.96
2022-09-02T09:12:11.968Z,25.42
2022-09-02T09:14:48.381Z,25.60
2022-09-02T09:17:26.361Z,25.45
2022-09-02T09:19:58.569Z,26.05
2022-09-02T09:22:32.589Z,27.23
2022-09-02T09:25:01.496Z,27.43
2022-09-02T09:27:29.896Z,26.06
2022-09-02T09:29:58.204Z,25.82
2022-09-02T09:32:33.505Z,25.38
2022-09-02T09:35:06.945Z,24.47
2022-09-02T09:37:38.464Z,24.48
2022-09-02T09:40:27.598Z,23.77
2022-09-02T09:42:58.929Z,23.40
2022-09-02T09:45:32.779Z,22.81
2022-09-02T09:48:23.257Z,22.75
2022-09-02T09:51:12.532Z,22.86
2022-09-02T09:53:41.307Z,23.71
2022-09-02T09:56:37.520Z,23.71
2022-09-02T09:59:10.540Z,23.95
2022-09-02T10:01:39.351Z,24.08
2022-09-02T10:04:42.195Z,24.38
2022-09-02T10:07:00.871Z,26.93
2022-09-02T10:09:35.240Z,26.27
2022-09-02T10:12:06.158Z,26.13
2022-09-02T10:14:38.264Z,26.04
2022-09-02T10:17:18.875Z,26.09
2022-09-02T10:19:56.249Z,26.50
2022-09-02T10:23:11.541Z,27.41
2022-09-02T10:25:54.522Z,27.30
2022-09-02T10:28:33.982Z,27.76
2022-09-02T10:31:12.264Z,30.36
2022-09-02T10:33:58.284Z,31.22
2022-09-02T10:36:36.318Z,31.58
2022-09-02T10:39:09.715Z,31.24
2022-09-02T10:44:29.644Z,32.27
2022-09-02T10:47:02.399Z,30.17
2022-09-02T10:49:48.778Z,31.48
2022-09-02T10:52:35.072Z,31.30
2022-09-02T10:55:17.191Z,31.22
2022-09-02T10:57:52.988Z,30.83
2022-09-02T11:00:23.139Z,31.34
2022-09-02T11:02:56.846Z,31.78
2022-09-02T11:05:30.263Z,31.97
2022-09-02T11:08:06.150Z,32.62
2022-09-02T11:10:39.949Z,35.33
2022-09-02T11:13:14.644Z,33.80
2022-09-02T11:15:49.439Z,32.53
2022-09-02T11:18:24.227Z,30.61
2022-09-02T11:21:02.328Z,29.94
2022-09-02T11:23:40.434Z,29.90
2022-09-02T11:26:15.796Z,29.45
2022-09-02T11:28:54.291Z,29.13
2022-09-02T11:31:33.711Z,29.05
2022-09-02T11:34:14.315Z,29.75
2022-09-02T11:36:44.989Z,30.54
2022-09-02T11:39:30.662Z,29.71
2022-09-02T11:42:19.359Z,28.45
2022-09-02T11:45:19.303Z,28.61
2022-09-02T11:48:10.646Z,32.29
2022-09-02T11:51:05.072Z,31.29
2022-09-02T11:53:39.569Z,29.93
2022-09-02T11:56:16.629Z,30.05
2022-09-02T11:58:47.582Z,34.61
2022-09-02T12:01:33.251Z,33.26
2022-09-02T12:07:29.775Z,29.82
2022-09-02T12:10:02.347Z,29.87
2022-09-02T12:13:18.837Z,32.11
2022-09-02T12:15:47.502Z,32.15
2022-09-02T12:18:31.094Z,30.62
2022-09-02T12:21:18.676Z,31.57
2022-09-02T12:24:19.002Z,31.81
2022-09-02T12:27:09.416Z,28.55
2022-09-02T12:29:39.777Z,27.09
2022-09-02T12:32:09.964Z,27.70
2022-09-02T12:34:55.048Z,28.90
2022-09-02T12:37:57.703Z,33.03
2022-09-02T12:40:38.642Z,35.86
2022-09-02T12:43:20.919Z,35.36
2022-09-02T12:45:59.012Z,31.97
2022-09-02T12:48:39.022Z,31.92
2022-09-02T12:51:08.772Z,33.97
2022-09-02T12:53:42.179Z,35.83
2022-09-02T12:56:21.355Z,36.14
2022-09-02T12:58:53.105Z,35.21
2022-09-02T13:01:37.649Z,31.33
2022-09-02T13:04:26.501Z,29.23
2022-09-02T13:07:20.923Z,31.91
2022-09-02T13:10:22.746Z,34.35
2022-09-02T13:13:14.019Z,31.34
2022-09-02T13:16:03.812Z,32.75
2022-09-02T13:18:54.485Z,34.43
2022-09-02T13:21:58.462Z,35.63
2022-09-02T13:24:51.605Z,35.79
2022-09-02T13:28:11.028Z,37.07
2022-09-02T13:31:08.849Z,38.81
2022-09-02T13:33:42.432Z,37.46
2022-09-02T13:36:11.564Z,38.27
2022-09-02T13:38:40.162Z,35.31
2022-09-02T13:41:09.387Z,31.89
2022-09-02T13:43:38.386Z,30.24
2022-09-02T13:46:07.130Z,28.53
2022-09-02T13:48:39.761Z,30.81
2022-09-02T13:51:14.644Z,32.91
2022-09-02T13:54:18.648Z,32.58
2022-09-02T13:56:36.528Z,29.55
2022-09-02T13:59:04.931Z,28.30
2022-09-02T14:01:35.409Z,28.80
2022-09-02T14:04:07.392Z,29.78
2022-09-02T14:06:41.363Z,29.66
2022-09-02T14:09:20.312Z,27.31
2022-09-02T14:11:50.594Z,29.89
2022-09-02T14:14:24.691Z,28.31
2022-09-02T14:16:53.336Z,27.20
2022-09-02T14:19:26.827Z,26.19
2022-09-02T14:21:58.544Z,25.83
2022-09-02T14:24:28.563Z,27.08
2022-09-02T14:26:58.062Z,28.31
2022-09-02T14:29:29.203Z,29.90
2022-09-02T14:32:10.005Z,31.46
2022-09-02T14:34:39.845Z,30.92
2022-09-02T14:37:24.807Z,29.91
2022-09-02T14:40:07.021Z,29.23
2022-09-02T14:42:45.025Z,29.11
2022-09-02T14:45:13.711Z,30.76
2022-09-02T14:47:42.682Z,30.81
2022-09-02T14:50:17.537Z,30.60
2022-09-02T14:52:50.707Z,29.79
2022-09-02T14:55:47.492Z,30.50
2022-09-02T14:58:16.405Z,29.63
2022-09-02T15:00:47.214Z,28.97
2022-09-02T15:03:17.397Z,28.49
2022-09-02T15:05:48.118Z,27.67
2022-09-02T15:08:20.133Z,27.75
2022-09-02T15:10:49.347Z,27.49
2022-09-02T15:13:27.453Z,27.04
2022-09-02T15:15:56.992Z,26.58
2022-09-02T15:18:25.373Z,26.60
2022-09-02T15:20:54.214Z,26.37
2022-09-02T15:23:24.861Z,26.21
2022-09-02T15:25:54.821Z,25.98
2022-09-02T15:28:23.433Z,25.91
2022-09-02T15:30:58.834Z,25.92
2022-09-02T15:33:27.741Z,25.77
2022-09-02T15:35:56.347Z,25.64
2022-09-02T15:38:26.082Z,25.42
2022-09-02T15:40:54.371Z,25.41
2022-09-02T15:43:23.301Z,25.00
2022-09-02T15:45:51.967Z,24.92
2022-09-02T15:48:20.436Z,25.08
2022-09-02T15:50:48.656Z,24.99
2022-09-02T15:53:22.817Z,25.01
2022-09-02T15:55:52.554Z,25.20
2022-09-02T15:58:20.949Z,25.26
2022-09-02T16:00:49.180Z,25.16
2022-09-02T16:03:17.417Z,25.14
2022-09-02T16:05:46.000Z,25.09
2022-09-02T16:08:14.611Z,24.77
2022-09-02T16:10:45.129Z,24.62
2022-09-02T16:13:15.341Z,24.49
2022-09-02T16:15:45.043Z,24.50
2022-09-02T16:18:13.450Z,24.48
2022-09-02T16:20:41.752Z,24.42
2022-09-02T16:23:10.376Z,24.31
2022-09-02T16:25:38.737Z,24.19
2022-09-02T16:28:06.988Z,24.08
2022-09-02T16:30:36.935Z,24.04
2022-09-02T16:33:05.719Z,23.83
2022-09-02T16:35:34.493Z,23.77
2022-09-02T16:38:02.822Z,23.67
2022-09-02T16:40:31.174Z,23.54
2022-09-02T16:42:59.558Z,23.58
2022-09-02T16:45:27.871Z,23.51
2022-09-02T16:47:57.783Z,23.44
2022-09-02T16:50:26.195Z,23.32
2022-09-02T16:52:55.217Z,23.19
2022-09-02T16:55:23.634Z,23.10
2022-09-02T16:57:52.048Z,23.12
2022-09-02T17:00:20.322Z,23.03
2022-09-02T17:02:48.838Z,22.96
2022-09-02T17:05:19.995Z,22.88
2022-09-02T17:07:49.173Z,22.77
2022-09-02T17:10:17.990Z,22.64
2022-09-02T17:12:46.804Z,22.52
2022-09-02T17:15:15.832Z,22.43
2022-09-02T17:17:44.403Z,22.39
2022-09-02T17:20:14.361Z,22.34
2022-09-02T17:22:44.220Z,22.24
2022-09-02T17:25:12.651Z,22.14
2022-09-02T17:27:42.222Z,22.06
2022-09-02T17:30:20.127Z,22.03
2022-09-02T17:32:52.983Z,21.95
2022-09-02T17:35:45.804Z,21.85
2022-09-02T17:42:55.351Z,21.69
2022-09-02T17:45:24.109Z,21.59
2022-09-02T17:47:52.455Z,21.57
2022-09-02T17:50:33.437Z,21.53
2022-09-02T17:53:02.569Z,21.42
2022-09-02T17:55:34.622Z,21.30
2022-09-02T17:58:15.196Z,21.16
2022-09-02T18:00:46.703Z,21.03
2022-09-02T18:03:31.263Z,20.90
2022-09-02T18:06:08.613Z,20.74
2022-09-02T18:08:45.956Z,20.60
2022-09-02T18:11:14.453Z,20.42
2022-09-02T18:13:54.414Z,20.27
2022-09-02T18:16:30.583Z,20.15
2022-09-02T18:19:14.237Z,20.05
2022-09-02T18:21:53.198Z,20.01
2022-09-02T18:24:33.919Z,19.94
2022-09-02T18:27:12.137Z,19.82
2022-09-02T18:29:53.916Z,19.82
2022-09-02T18:32:38.916Z,19.80
2022-09-02T18:35:23.590Z,19.77
2022-09-02T18:38:01.876Z,19.69
2022-09-02T18:40:44.087Z,19.68
2022-09-02T18:43:21.513Z,19.61
2022-09-02T18:45:52.698Z,19.63
2022-09-02T18:48:25.602Z,19.63
2022-09-02T18:50:57.869Z,19.62
2022-09-02T18:53:32.500Z,19.61
2022-09-02T18:56:09.173Z,19.64
2022-09-02T18:58:43.743Z,19.60
2022-09-02T19:01:24.164Z,19.53
2022-09-02T19:03:56.282Z,19.61
2022-09-02T19:06:28.887Z,19.57
2022-09-02T19:09:01.310Z,19.52
2022-09-02T19:11:34.702Z,19.52
2022-09-02T19:14:17.613Z,19.45
2022-09-02T19:16:48.473Z,19.49
2022-09-02T19:19:19.901Z,19.43
2022-09-02T19:21:52.794Z,19.46
2022-09-02T19:24:26.431Z,19.42
2022-09-02T19:27:00.439Z,19.39
2022-09-02T19:29:33.448Z,19.35
2022-09-02T19:32:12.713Z,19.41
2022-09-02T19:34:46.605Z,19.30
2022-09-02T19:37:17.240Z,19.28
2022-09-02T19:39:54.208Z,19.26
2022-09-02T19:42:24.173Z,19.21
2022-09-02T19:44:56.586Z,19.24
2022-09-02T19:50:16.824Z,19.06
2022-09-02T19:52:46.882Z,19.12
2022-09-02T19:55:18.599Z,19.13
2022-09-02T19:57:47.819Z,18.99
2022-09-02T20:00:16.810Z,18.95
2022-09-02T20:02:47.378Z,18.85
2022-09-02T20:05:28.690Z,18.84
2022-09-02T20:08:00.934Z,18.76
2022-09-02T20:10:30.292Z,18.77
2022-09-02T20:12:59.339Z,18.69
2022-09-02T20:15:28.553Z,18.67
2022-09-02T20:18:10.520Z,18.56
2022-09-02T20:20:47.316Z,18.52
2022-09-02T20:23:19.455Z,18.57
2022-09-02T20:26:15.370Z,18.46
2022-09-02T20:29:01.134Z,18.46
2022-09-02T20:31:45.876Z,18.42
2022-09-02T20:34:30.619Z,18.36
2022-09-02T20:37:14.230Z,18.31
2022-09-02T20:39:58.962Z,18.26
2022-09-02T20:42:49.039Z,18.25
2022-09-02T20:45:29.417Z,18.23
2022-09-02T20:48:10.455Z,18.10
2022-09-02T20:50:47.881Z,18.08
2022-09-02T20:53:43.080Z,18.03
2022-09-02T20:56:21.448Z,17.98
2022-09-02T20:59:02.969Z,17.98
2022-09-02T21:01:35.779Z,17.88
2022-09-02T21:04:09.067Z,17.94
2022-09-02T21:06:46.074Z,17.90
2022-09-02T21:09:25.258Z,17.83
2022-09-02T21:12:03.776Z,17.80
2022-09-02T21:14:39.734Z,17.84
2022-09-02T21:17:20.807Z,17.86
2022-09-02T21:19:58.800Z,17.82
2022-09-02T21:22:36.436Z,17.74
2022-09-02T21:25:11.559Z,17.61
2022-09-02T21:27:45.484Z,17.57
2022-09-02T21:30:18.333Z,17.47
2022-09-02T21:32:51.377Z,17.45
2022-09-02T21:35:27.258Z,17.41
2022-09-02T21:38:04.564Z,17.37
2022-09-02T21:40:49.361Z,17.38
2022-09-02T21:43:31.188Z,17.41
2022-09-02T21:46:06.987Z,17.29
2022-09-02T21:48:48.320Z,17.23
2022-09-02T21:51:25.582Z,17.14
2022-09-02T21:54:10.971Z,17.06
2022-09-02T21:56:55.439Z,17.06
2022-09-02T21:59:40.612Z,17.03
2022-09-02T22:02:14.926Z,17.00
2022-09-02T22:04:55.362Z,16.99
2022-09-02T22:07:29.135Z,16.87
2022-09-02T22:10:08.710Z,16.80
2022-09-02T22:12:41.137Z,16.78
2022-09-02T22:15:22.244Z,16.74
2022-09-02T22:17:55.451Z,16.77
2022-09-02T22:20:33.148Z,16.73
2022-09-02T22:23:08.784Z,16.65
2022-09-02T22:25:38.622Z,16.64
2022-09-02T22:28:12.381Z,16.66
2022-09-02T22:30:48.198Z,16.58
2022-09-02T22:33:24.032Z,16.61
2022-09-02T22:35:58.443Z,16.61
2022-09-02T22:38:33.323Z,16.59
2022-09-02T22:41:14.516Z,16.60
2022-09-02T22:43:49.802Z,16.52
2022-09-02T22:46:43.859Z,16.47
2022-09-02T22:49:34.592Z,16.41
2022-09-02T22:52:26.810Z,16.44
2022-09-02T22:54:57.898Z,16.44
2022-09-02T22:57:40.042Z,16.39
2022-09-02T23:00:11.101Z,16.42
2022-09-02T23:02:45.688Z,16.33
2022-09-02T23:05:45.274Z,16.30
2022-09-02T23:08:15.366Z,16.23
2022-09-02T23:10:50.480Z,16.23
2022-09-02T23:13:31.985Z,16.19
2022-09-02T23:16:11.981Z,16.17
2022-09-02T23:18:52.851Z,16.17
2022-09-02T23:21:26.971Z,16.08
2022-09-02T23:24:06.257Z,16.10
2022-09-02T23:26:41.876Z,15.97
2022-09-02T23:29:26.284Z,15.98
2022-09-02T23:32:05.360Z,15.96
2022-09-02T23:34:54.002Z,15.93
2022-09-02T23:37:35.006Z,15.92
2022-09-02T23:40:16.278Z,15.86
2022-09-02T23:42:44.664Z,15.85
2022-09-02T23:45:22.605Z,15.79
2022-09-02T23:48:12.739Z,15.76
2022-09-02T23:50:56.637Z,15.70
2022-09-02T23:53:32.662Z,15.66
2022-09-02T23:56:14.859Z,15.62
2022-09-02T23:58:57.481Z,15.60
